Time;durP1;ratioP1;P1;durP2;ratioP2;P2;SDS_P1;SDS_P2;PMS_P1;PMS_P2;Temp;Humidity;BMP_temperature;BMP_pressure;BME280_temperature;BME280_humidity;BME280_pressure;Samples;Min_cycle;Max_cycle;Signal;HPM_P1;HPM_P2
2023/12/02 00:02:22;;;;;;;17.45;10.43;;;;;;;-2.02;80.39;97933.09;5071158;28;20027;-85
2023/12/02 00:04:48;;;;;;;14.60;9.30;;;;;;;-2.94;78.38;97960.22;5042425;28;20028;-84
2023/12/02 00:07:13;;;;;;;22.00;11.32;;;;;;;-2.70;79.95;97964.28;5048676;28;20028;-84
2023/12/02 00:09:39;;;;;;;21.88;11.20;;;;;;;-2.93;79.34;97961.03;5069887;28;20032;-84
2023/12/02 00:12:05;;;;;;;17.80;11.15;;;;;;;-2.52;81.07;97951.59;5070172;28;20031;-85
2023/12/02 00:14:31;;;;;;;19.40;12.07;;;;;;;-2.62;80.32;97943.28;5071759;28;20073;-84
2023/12/02 00:16:56;;;;;;;21.70;11.82;;;;;;;-2.19;79.69;97936.19;5067116;28;20028;-83
2023/12/02 00:19:22;;;;;;;18.23;11.52;;;;;;;-2.39;80.80;97951.69;5050434;28;20024;-83
2023/12/02 00:21:47;;;;;;;19.20;10.63;;;;;;;-1.77;79.29;97946.53;5071059;28;20024;-84
2023/12/02 00:24:13;;;;;;;17.85;10.02;;;;;;;-1.99;77.62;97951.00;5072295;28;20032;-83
2023/12/02 00:26:38;;;;;;;15.60;10.13;;;;;;;-2.22;78.49;97957.44;5053090;28;20050;-83
2023/12/02 00:29:04;;;;;;;19.42;11.18;;;;;;;-1.74;78.04;97939.09;5077586;28;20040;-83
2023/12/02 00:31:29;;;;;;;16.85;10.23;;;;;;;-2.06;79.25;97937.09;5067743;28;20055;-83
2023/12/02 00:33:57;;;;;;;21.02;11.30;;;;;;;-2.66;80.06;97947.22;5051028;28;20028;-83
2023/12/02 00:36:22;;;;;;;19.77;10.32;;;;;;;-2.48;78.81;97945.81;5066611;28;20035;-83
2023/12/02 00:38:48;;;;;;;18.30;10.80;;;;;;;-1.35;78.98;97935.84;5071149;28;20016;-83
2023/12/02 00:41:13;;;;;;;21.80;11.30;;;;;;;-2.64;79.24;97956.50;5053573;28;20476;-83
2023/12/02 00:43:39;;;;;;;17.63;9.93;;;;;;;-3.19;79.94;97951.13;5070037;28;20076;-83
2023/12/02 00:46:04;;;;;;;16.73;9.82;;;;;;;-2.78;80.40;97954.78;5056668;28;20036;-84
2023/12/02 00:48:30;;;;;;;17.38;11.00;;;;;;;-1.79;80.37;97936.22;5068700;28;20036;-84
2023/12/02 00:50:55;;;;;;;16.92;10.20;;;;;;;-3.06;81.44;97940.84;5062573;28;20051;-83
2023/12/02 00:53:20;;;;;;;18.77;10.13;;;;;;;-3.05;80.37;97926.78;5051109;28;20024;-83
2023/12/02 00:55:46;;;;;;;18.20;9.63;;;;;;;-2.21;79.75;97927.72;5035948;28;20051;-84
2023/12/02 00:58:11;;;;;;;19.77;10.25;;;;;;;-2.23;80.11;97924.50;5037144;28;20391;-83
2023/12/02 01:00:37;;;;;;;19.13;10.60;;;;;;;-2.03;78.88;97926.22;5055216;28;20029;-84
2023/12/02 01:03:02;;;;;;;19.33;9.88;;;;;;;-1.63;77.89;97927.25;5028037;28;20143;-84
2023/12/02 01:05:27;;;;;;;16.38;9.18;;;;;;;-2.16;78.77;97938.41;5073367;28;20037;-84
2023/12/02 01:07:53;;;;;;;17.15;9.88;;;;;;;-2.18;78.31;97919.50;5067827;28;20036;-84
2023/12/02 01:10:18;;;;;;;16.38;9.45;;;;;;;-1.91;78.07;97944.81;5069261;28;20032;-84
2023/12/02 01:12:44;;;;;;;17.98;10.93;;;;;;;-1.70;77.24;97931.66;5063599;28;20025;-84
2023/12/02 01:15:09;;;;;;;17.35;9.75;;;;;;;-2.05;78.45;97915.16;5050420;28;20063;-84
2023/12/02 01:17:34;;;;;;;16.95;8.73;;;;;;;-2.56;77.10;97930.28;5051336;28;20036;-84
2023/12/02 01:20:00;;;;;;;17.95;9.88;;;;;;;-2.93;80.61;97919.28;5063923;28;20032;-83
2023/12/02 01:22:25;;;;;;;17.77;9.02;;;;;;;-3.45;80.08;97941.16;5072352;28;20029;-83
2023/12/02 01:24:51;;;;;;;16.73;8.90;;;;;;;-2.78;79.85;97951.34;5071110;28;20028;-84
2023/12/02 01:27:16;;;;;;;17.02;9.85;;;;;;;-2.45;78.75;97961.13;5068389;28;20373;-84
2023/12/02 01:29:42;;;;;;;14.43;7.95;;;;;;;-2.44;77.09;97959.28;5072374;28;20028;-84
2023/12/02 01:32:07;;;;;;;17.23;9.75;;;;;;;-2.36;79.06;97957.34;5070373;28;20039;-84
2023/12/02 01:34:33;;;;;;;15.82;8.20;;;;;;;-3.56;78.32;97954.66;5065185;28;20744;-83
2023/12/02 01:36:58;;;;;;;14.27;8.10;;;;;;;-3.31;78.62;97969.03;5051737;28;20381;-84
2023/12/02 01:39:24;;;;;;;13.20;8.23;;;;;;;-2.72;79.21;97972.28;5069409;28;20035;-84
2023/12/02 01:41:49;;;;;;;14.90;8.35;;;;;;;-2.39;78.84;97952.53;5053171;28;20033;-83
2023/12/02 01:44:15;;;;;;;12.18;7.05;;;;;;;-2.89;78.06;97957.88;5064175;28;20029;-83
2023/12/02 01:46:40;;;;;;;15.90;8.60;;;;;;;-2.64;79.15;97960.91;5054091;28;20488;-84
2023/12/02 01:49:08;;;;;;;14.05;8.32;;;;;;;-2.43;78.38;97963.53;5064439;28;20036;-84
2023/12/02 01:51:34;;;;;;;13.20;7.55;;;;;;;-2.71;76.54;97967.88;5050565;28;21288;-84
2023/12/02 01:54:00;;;;;;;13.63;7.88;;;;;;;-3.14;77.65;97953.97;5050777;28;20128;-84
2023/12/02 01:56:26;;;;;;;9.90;6.85;;;;;;;-2.80;78.12;97953.34;5054102;28;20063;-84
2023/12/02 01:58:51;;;;;;;12.18;7.70;;;;;;;-2.86;78.54;97931.38;5050414;28;20090;-84
2023/12/02 02:01:18;;;;;;;12.30;7.03;;;;;;;-3.13;77.61;97958.22;5072205;28;20036;-83
2023/12/02 02:03:43;;;;;;;11.98;7.38;;;;;;;-3.50;77.58;97950.53;5054461;28;20035;-83
2023/12/02 02:06:10;;;;;;;11.30;6.80;;;;;;;-2.48;79.72;97947.59;5030638;28;20032;-84
2023/12/02 02:08:36;;;;;;;11.95;7.38;;;;;;;-2.31;79.08;97959.41;5062179;28;20059;-83
2023/12/02 02:11:02;;;;;;;14.60;7.80;;;;;;;-2.39;77.44;97934.22;5068487;28;20032;-83
2023/12/02 02:13:27;;;;;;;13.25;7.43;;;;;;;-2.63;76.70;97967.75;5070380;28;20028;-83
2023/12/02 02:15:56;;;;;;;11.20;7.28;;;;;;;-3.05;76.36;97948.47;5058232;28;20035;-83
2023/12/02 02:18:24;;;;;;;14.93;7.97;;;;;;;-3.38;79.30;97968.16;5060543;28;20219;-83
2023/12/02 02:20:53;;;;;;;10.88;7.20;;;;;;;-3.90;80.28;97957.84;5066647;28;20036;-83
2023/12/02 02:23:20;;;;;;;14.18;7.55;;;;;;;-3.08;80.43;97972.31;5066195;28;20511;-83
2023/12/02 02:25:46;;;;;;;10.43;7.75;;;;;;;-2.86;78.88;97969.75;5069922;28;20040;-83
2023/12/02 02:28:12;;;;;;;12.80;7.00;;;;;;;-3.61;78.62;97969.25;5068207;28;20094;-83
2023/12/02 02:30:37;;;;;;;14.18;8.10;;;;;;;-3.54;79.95;97970.97;5032391;28;20480;-83
2023/12/02 02:33:02;;;;;;;13.23;6.90;;;;;;;-2.98;81.29;97955.56;5080372;28;20064;-84
2023/12/02 02:35:28;;;;;;;14.60;8.70;;;;;;;-3.64;78.52;97967.81;5052267;28;20075;-83
2023/12/02 02:37:53;;;;;;;14.88;8.13;;;;;;;-3.02;80.78;97957.72;5062262;28;20079;-83
2023/12/02 02:40:19;;;;;;;18.02;9.75;;;;;;;-3.67;79.71;97964.75;5051294;28;20039;-83
2023/12/02 02:42:44;;;;;;;16.25;7.85;;;;;;;-3.86;80.60;97966.91;5069154;28;20017;-83
2023/12/02 02:45:10;;;;;;;15.80;8.65;;;;;;;-2.28;81.12;97978.13;5064518;28;20118;-83
2023/12/02 02:47:35;;;;;;;18.92;8.95;;;;;;;-3.38;79.99;97977.75;5066758;28;20415;-83
2023/12/02 02:50:00;;;;;;;15.48;8.43;;;;;;;-3.44;79.22;97976.69;5049610;28;20033;-83
2023/12/02 02:52:26;;;;;;;16.75;8.27;;;;;;;-3.53;81.24;97990.81;5049366;28;20086;-82
2023/12/02 02:54:51;;;;;;;13.85;7.78;;;;;;;-3.98;80.02;97980.56;5051645;28;20028;-82
2023/12/02 02:57:20;;;;;;;20.45;8.52;;;;;;;-4.04;81.03;97978.69;5048968;28;20060;-83
2023/12/02 02:59:45;;;;;;;16.77;9.30;;;;;;;-3.51;82.86;97993.25;5067898;28;20021;-83
2023/12/02 03:02:10;;;;;;;17.35;9.55;;;;;;;-2.75;80.46;97992.75;5066520;28;20442;-84
2023/12/02 03:04:36;;;;;;;18.92;9.88;;;;;;;-3.76;80.12;97979.69;5051257;28;20669;-83
2023/12/02 03:07:01;;;;;;;20.67;9.98;;;;;;;-3.64;81.47;97978.25;5036451;28;20056;-83
2023/12/02 03:09:26;;;;;;;18.70;10.30;;;;;;;-3.54;82.05;97980.59;5049813;28;20028;-84
2023/12/02 03:11:52;;;;;;;18.50;9.82;;;;;;;-2.75;82.06;97985.72;5053550;28;20028;-84
2023/12/02 03:14:17;;;;;;;19.58;9.95;;;;;;;-2.63;80.44;97986.84;5052532;28;20037;-84
2023/12/02 03:16:43;;;;;;;18.52;10.45;;;;;;;-2.36;79.77;97980.06;5032916;28;20024;-84
2023/12/02 03:19:08;;;;;;;19.63;10.30;;;;;;;-2.25;79.44;97990.03;5063472;28;20105;-83
2023/12/02 03:21:33;;;;;;;18.33;9.88;;;;;;;-3.09;80.58;97991.59;5052336;28;20029;-83
2023/12/02 03:23:59;;;;;;;22.90;10.13;;;;;;;-3.68;80.18;97961.34;5071107;28;20059;-82
2023/12/02 03:26:24;;;;;;;18.92;10.82;;;;;;;-3.57;80.72;97984.34;5072097;28;20081;-83
2023/12/02 03:28:50;;;;;;;20.27;10.43;;;;;;;-3.88;81.02;97981.91;5051941;28;20029;-83
2023/12/02 03:31:15;;;;;;;16.52;8.77;;;;;;;-3.82;82.71;97989.03;5069293;28;20024;-83
2023/12/02 03:33:41;;;;;;;17.45;9.30;;;;;;;-3.65;82.78;97986.25;5066068;28;20029;-83
2023/12/02 03:36:07;;;;;;;17.27;9.00;;;;;;;-3.91;81.12;97979.66;5055090;28;20032;-82
2023/12/02 03:38:32;;;;;;;18.08;8.80;;;;;;;-3.57;81.02;97978.31;5071632;28;20028;-83
2023/12/02 03:40:59;;;;;;;18.10;9.43;;;;;;;-3.21;82.60;97984.41;5053023;28;20032;-83
2023/12/02 03:43:24;;;;;;;17.25;8.15;;;;;;;-2.45;80.76;97989.03;5048583;28;20027;-83
2023/12/02 03:45:50;;;;;;;15.55;8.20;;;;;;;-2.98;80.42;97972.03;5038015;28;20028;-83
2023/12/02 03:48:15;;;;;;;17.75;8.60;;;;;;;-2.00;79.88;97987.78;5066364;28;20032;-83
2023/12/02 03:50:41;;;;;;;14.90;8.02;;;;;;;-3.30;78.50;97980.28;5051145;28;20112;-84
2023/12/02 03:53:06;;;;;;;15.13;7.43;;;;;;;-2.43;78.96;98002.72;5037326;28;20483;-83
2023/12/02 03:55:31;;;;;;;15.00;7.95;;;;;;;-3.09;78.71;97981.16;5069421;28;20040;-84
2023/12/02 03:57:57;;;;;;;12.65;6.82;;;;;;;-3.67;79.22;97976.00;5052744;28;20039;-83
2023/12/02 04:00:23;;;;;;;10.85;7.05;;;;;;;-3.64;82.02;97985.25;5039208;28;20025;-83
2023/12/02 04:02:49;;;;;;;14.05;7.47;;;;;;;-4.03;80.82;97998.53;5037603;28;20498;-83
2023/12/02 04:05:14;;;;;;;15.02;7.07;;;;;;;-4.04;81.34;98002.13;5089413;28;20024;-83
2023/12/02 04:07:40;;;;;;;13.63;6.93;;;;;;;-3.78;81.69;97996.50;5069792;28;20056;-83
2023/12/02 04:10:06;;;;;;;14.60;8.43;;;;;;;-3.75;80.73;97988.28;5068330;28;20566;-83
2023/12/02 04:12:32;;;;;;;15.90;6.70;;;;;;;-4.06;82.27;98002.28;5067285;28;20028;-83
2023/12/02 04:14:57;;;;;;;16.83;6.95;;;;;;;-4.43;82.65;97986.66;5071765;28;20077;-83
2023/12/02 04:17:23;;;;;;;14.85;7.18;;;;;;;-3.73;83.38;98000.16;5066674;28;20102;-83
2023/12/02 04:19:48;;;;;;;14.45;6.65;;;;;;;-3.51;83.11;97986.22;5057825;28;20112;-83
2023/12/02 04:22:16;;;;;;;11.30;7.20;;;;;;;-3.59;82.64;98007.19;5066698;28;20024;-84
2023/12/02 04:24:41;;;;;;;13.77;6.85;;;;;;;-3.01;82.61;97995.09;5064069;28;20032;-83
2023/12/02 04:27:07;;;;;;;11.30;6.65;;;;;;;-3.44;80.04;98010.59;5063384;28;20554;-83
2023/12/02 04:29:35;;;;;;;15.25;6.93;;;;;;;-4.03;81.82;98009.75;5029749;28;20370;-83
2023/12/02 04:32:00;;;;;;;14.50;7.80;;;;;;;-3.50;82.43;98005.31;5047837;28;20119;-83
2023/12/02 04:34:26;;;;;;;15.45;8.60;;;;;;;-3.18;81.21;98018.78;5070562;28;20112;-84
2023/12/02 04:36:51;;;;;;;15.95;8.27;;;;;;;-3.35;80.68;98016.53;5069362;28;20065;-83
2023/12/02 04:39:16;;;;;;;12.02;7.50;;;;;;;-4.18;82.35;98008.94;5050811;28;20078;-82
2023/12/02 04:41:42;;;;;;;14.75;7.47;;;;;;;-3.14;83.51;98017.41;5087925;28;20519;-83
2023/12/02 04:44:07;;;;;;;14.35;7.97;;;;;;;-3.38;81.49;98025.53;5051775;28;20510;-83
2023/12/02 04:46:32;;;;;;;16.80;7.70;;;;;;;-3.62;81.17;98025.78;5037290;28;20064;-83
2023/12/02 04:48:58;;;;;;;16.30;7.65;;;;;;;-3.13;81.36;98044.31;5071893;28;20032;-83
2023/12/02 04:51:24;;;;;;;11.13;6.60;;;;;;;-3.82;82.09;98035.13;5067841;28;20028;-83
2023/12/02 04:53:49;;;;;;;13.95;7.20;;;;;;;-3.43;82.20;98020.03;5041618;28;20096;-83
2023/12/02 04:56:14;;;;;;;16.05;7.90;;;;;;;-3.60;81.35;98023.03;5070571;28;20040;-83
2023/12/02 04:58:40;;;;;;;16.52;7.95;;;;;;;-3.00;82.11;98033.22;5054276;28;20020;-84
2023/12/02 05:01:05;;;;;;;15.18;7.40;;;;;;;-3.81;81.51;98027.16;5067185;28;20071;-84
2023/12/02 05:03:31;;;;;;;10.32;6.72;;;;;;;-3.46;81.58;98038.66;5036865;28;20040;-83
2023/12/02 05:05:56;;;;;;;10.90;6.03;;;;;;;-3.06;82.13;98030.34;5066207;28;20041;-83
2023/12/02 05:08:22;;;;;;;16.02;8.20;;;;;;;-2.53;80.17;98044.00;5069720;28;20032;-83
2023/12/02 05:10:47;;;;;;;10.02;6.22;;;;;;;-2.93;79.90;98023.69;5065817;28;20472;-84
2023/12/02 05:13:12;;;;;;;11.63;7.45;;;;;;;-1.81;79.35;98045.44;5053669;28;20035;-84
2023/12/02 05:15:39;;;;;;;13.15;7.05;;;;;;;-2.84;79.13;98051.31;5064859;28;20365;-86
2023/12/02 05:18:04;;;;;;;9.65;5.82;;;;;;;-3.36;78.50;98036.59;5067751;28;20488;-83
2023/12/02 05:20:30;;;;;;;11.63;5.57;;;;;;;-3.35;81.58;98058.28;5047518;28;20035;-84
2023/12/02 05:22:55;;;;;;;12.57;6.03;;;;;;;-3.86;81.69;98041.69;5052354;28;20126;-83
2023/12/02 05:25:20;;;;;;;14.68;7.28;;;;;;;-3.62;82.97;98049.25;5052583;28;20032;-83
2023/12/02 05:27:46;;;;;;;15.35;7.32;;;;;;;-3.48;82.26;98065.91;5064110;28;20112;-83
2023/12/02 05:30:14;;;;;;;11.02;6.70;;;;;;;-3.82;80.98;98046.38;5069463;28;20060;-83
2023/12/02 05:32:40;;;;;;;13.48;6.85;;;;;;;-3.52;80.81;98049.81;5052260;28;20036;-84
2023/12/02 05:35:08;;;;;;;11.38;5.75;;;;;;;-3.83;81.39;98052.56;5067111;28;20047;-83
2023/12/02 05:37:34;;;;;;;12.15;6.47;;;;;;;-3.54;82.32;98059.63;5061820;28;20434;-83
2023/12/02 05:40:00;;;;;;;10.98;6.60;;;;;;;-3.51;83.30;98067.06;5049674;28;20025;-84
2023/12/02 05:42:25;;;;;;;11.73;6.20;;;;;;;-4.01;80.56;98059.91;5067495;28;20033;-84
2023/12/02 05:44:50;;;;;;;13.88;6.50;;;;;;;-3.53;81.24;98050.81;5049035;28;20071;-83
2023/12/02 05:47:16;;;;;;;8.00;5.05;;;;;;;-2.40;79.87;98065.03;5069845;28;20027;-84
2023/12/02 05:49:42;;;;;;;12.07;6.20;;;;;;;-3.51;79.25;98058.44;5062349;28;20036;-84
2023/12/02 05:52:07;;;;;;;11.05;6.82;;;;;;;-2.74;80.34;98070.09;5069170;28;20032;-84
2023/12/02 05:54:34;;;;;;;11.95;7.07;;;;;;;-3.56;80.46;98066.00;5036583;28;20096;-83
2023/12/02 05:56:59;;;;;;;12.20;6.38;;;;;;;-3.93;80.80;98064.22;5059752;28;20035;-84
2023/12/02 05:59:25;;;;;;;12.35;6.40;;;;;;;-4.04;81.64;98069.88;5046082;28;20025;-84
2023/12/02 06:01:51;;;;;;;12.45;7.38;;;;;;;-3.88;82.62;98061.91;5050005;28;20428;-84
2023/12/02 06:04:16;;;;;;;14.90;7.47;;;;;;;-3.01;81.35;98074.16;5067840;28;20535;-83
2023/12/02 06:06:45;;;;;;;17.10;6.85;;;;;;;-2.83;80.36;98061.56;5067456;28;20119;-84
2023/12/02 06:09:11;;;;;;;9.68;6.03;;;;;;;-3.21;79.11;98071.31;5087095;28;20564;-84
2023/12/02 06:11:36;;;;;;;10.50;6.88;;;;;;;-3.48;81.14;98060.69;5063543;28;20120;-84
2023/12/02 06:14:02;;;;;;;14.93;7.78;;;;;;;-3.10;79.85;98080.47;5033348;28;20029;-83
2023/12/02 06:16:27;;;;;;;12.32;7.13;;;;;;;-3.01;79.62;98071.56;5034798;28;20120;-84
2023/12/02 06:18:52;;;;;;;13.15;7.13;;;;;;;-2.58;80.09;98082.94;5050289;28;20025;-84
2023/12/02 06:21:18;;;;;;;14.93;8.63;;;;;;;-2.33;79.90;98082.41;5053285;28;20447;-83
2023/12/02 06:23:43;;;;;;;18.77;9.95;;;;;;;-2.51;78.16;98076.78;5067246;28;20025;-84
2023/12/02 06:26:09;;;;;;;15.10;9.05;;;;;;;-3.91;80.65;98077.91;5065701;28;20037;-83
2023/12/02 06:28:34;;;;;;;17.80;9.02;;;;;;;-3.47;81.63;98091.81;5065565;28;20028;-83
2023/12/02 06:30:59;;;;;;;17.45;9.50;;;;;;;-2.62;81.30;98090.31;5052338;28;20037;-83
2023/12/02 06:33:25;;;;;;;13.60;8.48;;;;;;;-2.09;79.85;98089.06;5051197;28;20059;-84
2023/12/02 06:35:50;;;;;;;16.73;10.10;;;;;;;-1.49;78.00;98085.13;5048671;28;20029;-84
2023/12/02 06:38:15;;;;;;;17.58;8.98;;;;;;;-1.71;75.90;98079.13;5066028;28;20029;-85
2023/12/02 06:40:41;;;;;;;18.17;9.75;;;;;;;-1.65;77.41;98094.88;5071468;28;20017;-85
2023/12/02 06:43:06;;;;;;;14.23;8.35;;;;;;;-2.76;78.14;98114.66;5071283;28;20123;-84
2023/12/02 06:45:34;;;;;;;22.40;11.13;;;;;;;-2.20;79.07;98107.84;5068289;28;20093;-84
2023/12/02 06:47:59;;;;;;;11.32;7.47;;;;;;;-3.37;78.95;98102.00;5050680;28;20101;-84
2023/12/02 06:50:25;;;;;;;14.15;8.02;;;;;;;-3.85;79.60;98105.88;5071689;28;20024;-84
2023/12/02 06:52:51;;;;;;;12.45;7.47;;;;;;;-3.96;81.29;98106.28;5072732;28;20028;-83
2023/12/02 06:55:16;;;;;;;11.00;7.07;;;;;;;-4.13;80.43;98120.41;5052931;28;20029;-84
2023/12/02 06:57:42;;;;;;;15.23;8.30;;;;;;;-2.68;81.15;98116.34;5039659;28;20093;-83
2023/12/02 07:00:09;;;;;;;18.05;8.07;;;;;;;-1.75;79.14;98109.28;5071341;28;20119;-83
2023/12/02 07:02:35;;;;;;;13.88;8.25;;;;;;;-1.19;76.26;98133.66;5047282;28;20036;-83
2023/12/02 07:05:00;;;;;;;12.02;7.20;;;;;;;-1.44;76.75;98127.25;5054593;28;20024;-84
2023/12/02 07:07:26;;;;;;;14.07;8.35;;;;;;;-2.62;76.60;98137.31;5073419;28;20114;-84
2023/12/02 07:09:51;;;;;;;16.80;8.52;;;;;;;-2.37;79.19;98122.97;5055077;28;20059;-83
2023/12/02 07:12:16;;;;;;;17.15;8.98;;;;;;;-0.91;76.73;98130.00;5038016;28;20075;-84
2023/12/02 07:14:42;;;;;;;16.70;9.07;;;;;;;-1.01;75.55;98124.31;5065111;28;20036;-83
2023/12/02 07:17:07;;;;;;;23.40;11.93;;;;;;;-0.97;74.77;98115.06;5055744;28;20090;-83
2023/12/02 07:19:32;;;;;;;26.45;13.05;;;;;;;-1.00;73.93;98135.56;5053555;28;20021;-84
2023/12/02 07:21:58;;;;;;;24.25;11.88;;;;;;;-0.58;74.57;98140.63;5053661;28;20054;-84
2023/12/02 07:24:23;;;;;;;21.52;11.20;;;;;;;-0.41;74.17;98149.78;5035846;28;20396;-84
2023/12/02 07:26:49;;;;;;;17.25;10.80;;;;;;;-0.94;73.34;98167.03;5046769;28;20080;-84
2023/12/02 07:29:14;;;;;;;19.88;11.20;;;;;;;-0.94;74.24;98148.69;5070626;28;20060;-84
2023/12/02 07:31:40;;;;;;;18.52;9.73;;;;;;;-0.52;73.41;98146.88;5067456;28;20036;-84
2023/12/02 07:34:05;;;;;;;18.60;10.65;;;;;;;-0.30;72.86;98162.31;5045374;28;20047;-84
2023/12/02 07:36:31;;;;;;;18.88;10.13;;;;;;;-0.45;73.29;98158.22;5066749;28;20040;-84
2023/12/02 07:38:56;;;;;;;14.50;8.98;;;;;;;-0.43;73.50;98154.41;5049057;28;20080;-84
2023/12/02 07:41:21;;;;;;;18.80;10.25;;;;;;;-0.60;73.68;98152.31;5053069;28;20033;-84
2023/12/02 07:43:47;;;;;;;12.93;7.90;;;;;;;-0.51;73.04;98154.56;5052829;28;20059;-84
2023/12/02 07:46:12;;;;;;;14.05;8.82;;;;;;;-0.69;73.99;98156.91;5069426;28;20039;-83
2023/12/02 07:48:37;;;;;;;11.35;6.88;;;;;;;-1.39;74.28;98166.72;5068142;28;20566;-83
2023/12/02 07:51:07;;;;;;;13.70;8.25;;;;;;;-0.73;74.84;98168.78;5032688;28;20028;-83
2023/12/02 07:53:32;;;;;;;14.52;8.57;;;;;;;-1.15;73.74;98167.09;5050323;28;20036;-84
2023/12/02 07:55:58;;;;;;;11.25;8.00;;;;;;;-0.62;74.61;98175.28;5051666;28;20047;-84
2023/12/02 07:58:24;;;;;;;14.07;8.43;;;;;;;-0.49;73.47;98180.59;5050082;28;20107;-83
2023/12/02 08:00:49;;;;;;;14.23;8.27;;;;;;;-0.36;73.06;98184.06;5062293;28;20032;-85
2023/12/02 08:03:14;;;;;;;16.77;8.55;;;;;;;-0.25;72.94;98186.13;5047699;28;20035;-84
2023/12/02 08:05:40;;;;;;;16.88;9.27;;;;;;;-0.44;73.15;98181.63;5048333;28;20097;-84
2023/12/02 08:08:05;;;;;;;11.90;7.18;;;;;;;-0.69;72.64;98180.47;5053781;28;20060;-84
2023/12/02 08:10:30;;;;;;;15.60;9.13;;;;;;;-0.69;74.02;98177.03;5054194;28;20040;-83
2023/12/02 08:12:56;;;;;;;11.95;7.40;;;;;;;-0.52;72.91;98154.75;5066342;28;20047;-83
2023/12/02 08:15:21;;;;;;;12.85;6.95;;;;;;;-0.56;73.20;98172.69;5050850;28;20499;-83
2023/12/02 08:17:46;;;;;;;11.02;7.57;;;;;;;-0.38;73.30;98187.88;5062562;28;20041;-83
2023/12/02 08:20:12;;;;;;;10.02;6.65;;;;;;;-0.44;73.11;98178.19;5052899;28;20111;-84
2023/12/02 08:22:37;;;;;;;11.50;6.90;;;;;;;-0.69;72.72;98163.94;5054935;28;20044;-83
2023/12/02 08:25:03;;;;;;;10.75;5.97;;;;;;;-0.55;73.31;98171.69;5067950;28;20116;-83
2023/12/02 08:27:28;;;;;;;12.02;6.43;;;;;;;-0.35;72.69;98175.19;5080237;28;20654;-83
2023/12/02 08:29:54;;;;;;;10.93;6.78;;;;;;;-0.82;73.33;98183.03;5031882;28;20033;-83
2023/12/02 08:32:19;;;;;;;10.35;6.85;;;;;;;-0.63;72.46;98177.09;5067466;28;20531;-83
2023/12/02 08:34:45;;;;;;;10.13;6.32;;;;;;;-0.92;73.94;98193.84;5070635;28;20058;-83
2023/12/02 08:37:10;;;;;;;12.40;6.60;;;;;;;-0.52;73.68;98194.06;5062420;28;20250;-83
2023/12/02 08:39:37;;;;;;;8.68;6.78;;;;;;;-1.16;73.80;98196.09;5064329;28;20080;-83
2023/12/02 08:42:02;;;;;;;9.68;6.05;;;;;;;-1.04;74.97;98202.41;5065102;28;20540;-83
2023/12/02 08:44:28;;;;;;;9.82;5.45;;;;;;;-1.17;73.12;98204.94;5060456;28;20029;-84
2023/12/02 08:46:53;;;;;;;9.85;6.47;;;;;;;-0.93;73.50;98202.72;5072570;28;20056;-84
2023/12/02 08:49:19;;;;;;;14.50;7.90;;;;;;;-0.64;72.53;98196.44;5051626;28;20111;-83
2023/12/02 08:51:45;;;;;;;10.80;6.90;;;;;;;-0.76;72.81;98219.75;5047447;28;20025;-84
2023/12/02 08:54:10;;;;;;;14.18;8.38;;;;;;;-0.84;74.03;98214.66;5069516;28;20426;-83
2023/12/02 08:56:36;;;;;;;12.90;7.63;;;;;;;-0.79;73.00;98216.72;5069602;28;20475;-83
2023/12/02 08:59:01;;;;;;;16.45;9.20;;;;;;;-1.35;74.32;98205.41;5067181;28;20693;-83
2023/12/02 09:01:27;;;;;;;11.98;8.15;;;;;;;-0.79;74.69;98224.56;5042115;28;20129;-82
2023/12/02 09:03:52;;;;;;;15.52;10.75;;;;;;;-0.93;72.95;98220.22;5059665;28;20040;-82
2023/12/02 09:06:18;;;;;;;16.15;9.57;;;;;;;-0.75;72.47;98217.94;5069348;28;20043;-82
2023/12/02 09:08:43;;;;;;;15.65;9.32;;;;;;;-0.87;74.24;98219.47;5067317;28;20046;-82
2023/12/02 09:11:08;;;;;;;15.43;8.70;;;;;;;-0.76;74.12;98197.97;5063406;28;20480;-84
2023/12/02 09:13:44;;;;;;;16.27;9.52;;;;;;;-0.53;73.17;98227.34;5062909;28;20035;-84
2023/12/02 09:16:21;;;;;;;19.55;9.80;;;;;;;-0.93;73.64;98230.69;5044685;28;20673;-82
2023/12/02 09:18:47;;;;;;;13.23;9.05;;;;;;;-0.50;73.91;98239.25;5059853;28;20040;-83
2023/12/02 09:21:59;;;;;;;16.50;9.82;;;;;;;-1.08;74.21;98246.50;5063198;28;20478;-83
2023/12/02 09:24:37;;;;;;;14.65;8.57;;;;;;;-0.51;74.35;98230.59;5058103;28;20387;-83
2023/12/02 09:27:05;;;;;;;17.10;8.95;;;;;;;-0.14;72.62;98231.97;5063525;28;20874;-83
2023/12/02 09:29:43;;;;;;;12.68;8.93;;;;;;;-0.13;72.50;98230.94;5061621;28;20040;-83
2023/12/02 09:32:36;;;;;;;16.77;8.93;;;;;;;-0.13;72.50;98236.19;5069753;28;20372;-84
2023/12/02 09:35:03;;;;;;;14.90;8.75;;;;;;;-0.70;72.70;98244.38;5068221;28;20712;-82
2023/12/02 09:37:52;;;;;;;13.00;8.65;;;;;;;-0.35;73.17;98242.56;5066813;28;20066;-82
2023/12/02 09:40:35;;;;;;;15.02;9.45;;;;;;;-0.97;72.40;98248.63;5066940;28;20028;-82
2023/12/02 09:43:25;;;;;;;15.38;9.07;;;;;;;-0.44;73.82;98256.81;5062938;28;20755;-82
2023/12/02 09:46:05;;;;;;;16.17;9.02;;;;;;;-0.19;73.01;98257.94;5057974;28;20488;-82
2023/12/02 09:48:34;;;;;;;19.20;11.05;;;;;;;-0.02;72.25;98254.81;5056762;28;20060;-82
2023/12/02 09:51:00;;;;;;;14.23;8.98;;;;;;;0.09;72.04;98263.13;5059392;28;20040;-82
2023/12/02 09:53:44;;;;;;;14.38;8.43;;;;;;;-0.03;71.78;98257.63;5061484;28;20067;-82
2023/12/02 09:56:23;;;;;;;14.00;9.27;;;;;;;-0.10;72.38;98249.75;5066841;28;20024;-81
2023/12/02 09:58:54;;;;;;;13.43;7.93;;;;;;;-0.19;71.56;98260.56;5080396;28;20021;-81
2023/12/02 10:01:31;;;;;;;13.57;8.50;;;;;;;-0.36;71.47;98257.47;5061598;28;20044;-81
2023/12/02 10:04:21;;;;;;;17.42;9.45;;;;;;;-0.04;72.44;98248.94;5058578;28;20035;-82
2023/12/02 10:06:58;;;;;;;13.73;8.82;;;;;;;0.11;71.20;98248.00;5063711;28;20717;-83
2023/12/02 10:09:35;;;;;;;13.63;8.20;;;;;;;-0.13;71.55;98257.16;5064769;28;20047;-82
2023/12/02 10:12:03;;;;;;;16.58;9.15;;;;;;;-0.45;73.19;98261.25;5064617;28;20028;-83
2023/12/02 10:14:33;;;;;;;12.57;9.00;;;;;;;-0.58;73.34;98252.50;5080534;28;20361;-82
2023/12/02 10:17:03;;;;;;;13.32;9.10;;;;;;;-0.16;73.03;98255.78;5065435;28;20044;-82
2023/12/02 10:19:34;;;;;;;18.20;9.65;;;;;;;0.15;71.92;98255.28;5064874;28;20025;-82
2023/12/02 10:22:02;;;;;;;13.75;8.57;;;;;;;-0.10;71.74;98257.59;5081675;28;20121;-82
2023/12/02 10:24:51;;;;;;;18.55;11.07;;;;;;;-1.98;74.87;98268.94;5065997;28;20439;-82
2023/12/02 10:27:17;;;;;;;29.25;15.95;;;;;;;-2.32;77.38;98259.09;5079116;28;20027;-83
2023/12/02 10:30:02;;;;;;;25.33;14.50;;;;;;;-2.03;78.53;98271.28;5057990;28;20045;-82
2023/12/02 10:33:09;;;;;;;25.70;14.88;;;;;;;-2.09;76.66;98264.19;5070315;28;20064;-83
2023/12/02 10:36:04;;;;;;;25.42;13.90;;;;;;;-1.75;75.73;98269.59;5085173;28;20016;-83
2023/12/02 10:38:41;;;;;;;23.45;13.45;;;;;;;-2.73;78.48;98257.09;5056939;28;20057;-81
2023/12/02 10:41:45;;;;;;;23.50;14.27;;;;;;;-1.58;76.83;98260.56;5082408;28;20012;-82
2023/12/02 10:44:15;;;;;;;21.88;12.93;;;;;;;-0.91;76.51;98250.47;5058263;28;20051;-82
2023/12/02 10:46:43;;;;;;;23.63;12.68;;;;;;;-0.35;73.93;98259.06;5060444;28;20020;-83
2023/12/02 10:49:11;;;;;;;29.45;14.32;;;;;;;-1.32;76.03;98240.84;5065011;28;20041;-82
2023/12/02 10:51:40;;;;;;;24.38;13.38;;;;;;;-0.88;75.89;98244.03;5066891;28;20442;-83
2023/12/02 10:54:06;;;;;;;25.65;13.63;;;;;;;-1.59;75.46;98245.03;5068018;28;20123;-82
2023/12/02 10:56:35;;;;;;;21.98;12.57;;;;;;;-1.97;77.44;98236.59;5031077;28;20131;-82
2023/12/02 10:59:01;;;;;;;30.83;14.45;;;;;;;-1.67;78.99;98247.78;5067183;28;20107;-82
2023/12/02 11:01:53;;;;;;;20.33;12.60;;;;;;;-0.38;75.04;98235.88;5038517;28;20033;-83
2023/12/02 11:04:31;;;;;;;21.05;11.10;;;;;;;-1.03;74.83;98240.72;5059170;28;20056;-83
2023/12/02 11:07:06;;;;;;;20.35;11.05;;;;;;;-0.12;73.62;98241.25;5065222;28;20384;-83
2023/12/02 11:09:44;;;;;;;;;;;;;;;-0.10;73.27;98234.00;5066825;28;20044;-84
2023/12/02 11:12:41;;;;;;;33.70;15.50;;;;;;;-0.17;73.53;98229.72;5071648;28;19912;-84
2023/12/02 11:15:09;;;;;;;20.77;12.88;;;;;;;-0.13;72.76;98228.31;5063969;28;20051;-84
2023/12/02 11:17:41;;;;;;;18.80;10.13;;;;;;;0.02;73.32;98241.31;5051301;28;20472;-84
2023/12/02 11:20:14;;;;;;;61.22;18.70;;;;;;;-0.10;72.77;98228.75;5062495;28;20031;-84
2023/12/02 11:23:32;;;;;;;37.35;15.18;;;;;;;-0.14;73.13;98237.22;5070515;28;20095;-84
2023/12/02 11:26:13;;;;;;;46.08;14.73;;;;;;;-0.06;73.15;98237.84;5051702;28;20051;-85
2023/12/02 11:28:44;;;;;;;53.83;16.05;;;;;;;0.01;72.78;98240.50;5063239;28;20033;-84